createdAt,value
2016-02-29T00:00:30.496Z,986.46
2016-02-29T00:01:30.482Z,986.51
2016-02-29T00:02:30.485Z,986.52
2016-02-29T00:03:30.488Z,986.59
2016-02-29T00:04:30.475Z,986.63
2016-02-29T00:05:30.478Z,986.63
2016-02-29T00:06:30.465Z,986.61
2016-02-29T00:07:30.467Z,986.64
2016-02-29T00:08:30.470Z,986.62
2016-02-29T00:09:30.458Z,986.62
2016-02-29T00:10:30.461Z,986.62
2016-02-29T00:11:30.448Z,986.54
2016-02-29T00:12:30.450Z,986.55
2016-02-29T00:13:30.453Z,986.55
2016-02-29T00:14:30.440Z,986.53
2016-02-29T00:15:30.442Z,986.52
2016-02-29T00:16:30.430Z,986.57
2016-02-29T00:17:30.433Z,986.6
2016-02-29T00:18:30.420Z,986.63
2016-02-29T00:19:30.422Z,986.67
2016-02-29T00:20:30.425Z,986.71
2016-02-29T00:21:30.411Z,986.74
2016-02-29T00:22:30.414Z,986.73
2016-02-29T00:23:30.417Z,986.72
2016-02-29T00:24:30.404Z,986.69
2016-02-29T00:25:30.407Z,986.71
2016-02-29T00:26:30.393Z,986.65
2016-02-29T00:27:30.397Z,986.59
2016-02-29T00:28:30.384Z,986.65
2016-02-29T00:29:30.387Z,986.57
2016-02-29T00:30:30.379Z,986.56
2016-02-29T00:31:30.381Z,986.61
2016-02-29T00:32:30.368Z,986.6
2016-02-29T00:33:30.370Z,986.63
2016-02-29T00:34:30.358Z,986.63
2016-02-29T00:35:30.361Z,986.63
2016-02-29T00:36:30.363Z,986.68
2016-02-29T00:37:30.350Z,986.68
2016-02-29T00:38:30.353Z,986.62
2016-02-29T00:39:30.355Z,986.65
2016-02-29T00:40:30.342Z,986.63
2016-02-29T00:41:30.361Z,986.67
2016-02-29T00:42:30.333Z,986.68
2016-02-29T00:43:30.335Z,986.72
2016-02-29T00:44:30.322Z,986.69
2016-02-29T00:45:30.341Z,986.73
2016-02-29T00:46:30.343Z,986.68
2016-02-29T00:47:30.330Z,986.67
2016-02-29T00:48:30.318Z,986.66
2016-02-29T00:49:30.304Z,986.66
2016-02-29T00:50:30.307Z,986.63
2016-02-29T00:51:30.294Z,986.61
2016-02-29T00:52:30.296Z,986.58
2016-02-29T00:53:30.299Z,986.55
2016-02-29T00:54:30.302Z,986.5
2016-02-29T00:55:30.304Z,986.47
2016-02-29T00:56:30.292Z,986.48
2016-02-29T00:57:30.279Z,986.43
2016-02-29T00:58:30.298Z,986.43
2016-02-29T00:59:30.284Z,986.45
2016-02-29T01:00:30.271Z,986.45
2016-02-29T01:01:30.289Z,986.43
2016-02-29T01:02:30.261Z,986.42
2016-02-29T01:03:30.264Z,986.41
2016-02-29T01:04:30.251Z,986.4
2016-02-29T01:05:30.253Z,986.39
2016-02-29T01:06:30.241Z,986.32
2016-02-29T01:07:30.244Z,986.31
2016-02-29T01:08:30.246Z,986.21
2016-02-29T01:09:33.249Z,986.19
2016-02-29T01:10:30.235Z,986.12
2016-02-29T01:11:30.222Z,986.12
2016-02-29T01:12:30.225Z,986.11
2016-02-29T01:13:30.228Z,986.14
2016-02-29T01:14:30.231Z,986.13
2016-02-29T01:15:30.218Z,986.14
2016-02-29T01:16:30.221Z,986.11
2016-02-29T01:17:30.208Z,986.15
2016-02-29T01:18:30.211Z,986.11
2016-02-29T01:19:30.197Z,986.11
2016-02-29T01:20:30.199Z,986.11
2016-02-29T01:21:30.188Z,986.13
2016-02-29T01:22:30.190Z,986.1
2016-02-29T01:23:30.193Z,986.11
2016-02-29T01:24:30.180Z,986.11
2016-02-29T01:25:30.182Z,986.07
2016-02-29T01:26:30.170Z,986.04
2016-02-29T01:27:30.173Z,986.08
2016-02-29T01:28:30.160Z,986.04
2016-02-29T01:29:30.161Z,986.09
2016-02-29T01:30:30.164Z,986.03
2016-02-29T01:31:30.151Z,986.07
2016-02-29T01:32:30.154Z,986.08
2016-02-29T01:33:30.141Z,986.1
2016-02-29T01:34:30.145Z,986.13
2016-02-29T01:35:30.147Z,986.17
2016-02-29T01:36:30.134Z,986.15
2016-02-29T01:37:30.137Z,986.13
2016-02-29T01:38:30.123Z,986.14
2016-02-29T01:39:30.125Z,986.13
2016-02-29T01:40:30.128Z,986.14
2016-02-29T01:41:30.116Z,986.14
2016-02-29T01:42:30.134Z,986.11
2016-02-29T01:43:30.105Z,986.08
2016-02-29T01:44:30.108Z,986.08
2016-02-29T01:45:30.096Z,986.06
2016-02-29T01:46:30.099Z,985.99
2016-02-29T01:47:30.085Z,986.02
2016-02-29T01:48:30.088Z,986.02
2016-02-29T01:49:30.091Z,986.02
2016-02-29T01:50:30.077Z,986.03
2016-02-29T01:51:30.080Z,986.09
2016-02-29T01:52:30.083Z,986.13
2016-02-29T01:53:30.071Z,986.14
2016-02-29T01:54:30.074Z,986.16
2016-02-29T01:55:30.060Z,986.15
2016-02-29T01:56:30.063Z,986.19
2016-02-29T01:57:30.050Z,986.19
2016-02-29T01:58:30.052Z,986.18
2016-02-29T01:59:30.055Z,986.18
2016-02-29T02:00:30.040Z,986.25
2016-02-29T02:01:30.028Z,986.18
2016-02-29T02:02:30.000Z,986.16
2016-02-29T02:03:29.987Z,986.2
2016-02-29T02:04:29.960Z,986.24
2016-02-29T02:05:29.964Z,986.21
2016-02-29T02:06:29.946Z,986.19
2016-02-29T02:07:29.928Z,986.14
2016-02-29T02:08:29.925Z,986.14
2016-02-29T02:09:29.906Z,986.13
2016-02-29T02:10:29.904Z,986.12
2016-02-29T02:11:29.905Z,986.15
2016-02-29T02:12:29.891Z,986.16
2016-02-29T02:13:29.891Z,986.16
2016-02-29T02:14:29.876Z,986.11
2016-02-29T02:15:29.877Z,986.04
2016-02-29T02:16:29.879Z,986.06
2016-02-29T02:17:29.865Z,986.03
2016-02-29T02:18:29.867Z,986.04
2016-02-29T02:19:29.853Z,986.02
2016-02-29T02:20:29.856Z,986.02
2016-02-29T02:21:29.842Z,986.05
2016-02-29T02:22:29.846Z,986.04
2016-02-29T02:23:29.864Z,986
2016-02-29T02:24:29.851Z,985.97
2016-02-29T02:25:29.839Z,985.92
2016-02-29T02:26:29.825Z,985.94
2016-02-29T02:27:29.828Z,985.96
2016-02-29T02:28:29.830Z,985.9
2016-02-29T02:29:29.817Z,985.97
2016-02-29T02:30:29.819Z,985.92
2016-02-29T02:31:29.808Z,985.89
2016-02-29T02:32:29.811Z,985.87
2016-02-29T02:33:29.813Z,985.83
2016-02-29T02:34:29.800Z,985.83
2016-02-29T02:35:29.802Z,985.78
2016-02-29T02:36:29.789Z,985.78
2016-02-29T02:37:29.792Z,985.76
2016-02-29T02:38:29.794Z,985.74
2016-02-29T02:39:29.782Z,985.74
2016-02-29T02:40:29.785Z,985.65
2016-02-29T02:41:29.771Z,985.67
2016-02-29T02:42:29.774Z,985.67
2016-02-29T02:43:29.762Z,985.69
2016-02-29T02:44:29.765Z,985.7
2016-02-29T02:45:29.767Z,985.7
2016-02-29T02:46:29.754Z,985.7
2016-02-29T02:47:29.757Z,985.69
2016-02-29T02:48:29.743Z,985.69
2016-02-29T02:49:29.745Z,985.67
2016-02-29T02:50:29.749Z,985.67
2016-02-29T02:51:29.736Z,985.6
2016-02-29T02:52:29.739Z,985.63
2016-02-29T02:53:29.726Z,985.64
2016-02-29T02:54:29.728Z,985.69
2016-02-29T02:55:29.715Z,985.69
2016-02-29T02:56:29.718Z,985.67
2016-02-29T02:57:29.705Z,985.71
2016-02-29T02:58:29.709Z,985.68
2016-02-29T02:59:29.711Z,985.7
2016-02-29T03:00:29.714Z,985.7
2016-02-29T03:01:29.716Z,985.69
2016-02-29T03:02:29.688Z,985.73
2016-02-29T03:03:29.691Z,985.72
2016-02-29T03:04:29.694Z,985.76
2016-02-29T03:05:29.680Z,985.78
2016-02-29T03:06:29.683Z,985.77
2016-02-29T03:07:29.670Z,985.77
2016-02-29T03:08:29.672Z,985.73
2016-02-29T03:09:29.660Z,985.69
2016-02-29T03:10:29.663Z,985.63
2016-02-29T03:11:29.665Z,985.6
2016-02-29T03:12:29.652Z,985.64
2016-02-29T03:13:29.655Z,985.62
2016-02-29T03:14:29.641Z,985.56
2016-02-29T03:15:29.644Z,985.62
2016-02-29T03:16:29.632Z,985.6
2016-02-29T03:17:29.635Z,985.61
2016-02-29T03:18:29.637Z,985.57
2016-02-29T03:19:29.640Z,985.57
2016-02-29T03:20:29.626Z,985.55
2016-02-29T03:21:29.614Z,985.49
2016-02-29T03:22:29.616Z,985.49
2016-02-29T03:23:29.620Z,985.49
2016-02-29T03:24:29.606Z,985.49
2016-02-29T03:25:29.609Z,985.53
2016-02-29T03:26:29.595Z,985.53
2016-02-29T03:27:29.598Z,985.53
2016-02-29T03:28:29.586Z,985.57
2016-02-29T03:29:29.589Z,985.59
2016-02-29T03:30:29.592Z,985.59
2016-02-29T03:31:29.578Z,985.61
2016-02-29T03:32:29.581Z,985.61
2016-02-29T03:33:29.583Z,985.59
2016-02-29T03:34:29.571Z,985.52
2016-02-29T03:35:29.573Z,985.57
2016-02-29T03:36:29.561Z,985.52
2016-02-29T03:37:29.563Z,985.5
2016-02-29T03:38:29.550Z,985.54
2016-02-29T03:39:29.552Z,985.5
2016-02-29T03:40:29.555Z,985.53
2016-02-29T03:41:29.542Z,985.59
2016-02-29T03:42:29.545Z,985.56
2016-02-29T03:43:29.533Z,985.56
2016-02-29T03:44:29.535Z,985.55
2016-02-29T03:45:29.521Z,985.49
2016-02-29T03:46:29.524Z,985.46
2016-02-29T03:47:29.543Z,985.44
2016-02-29T03:48:29.593Z,985.42
2016-02-29T03:49:29.596Z,985.46
2016-02-29T03:50:29.504Z,985.52
2016-02-29T03:51:29.507Z,985.56
2016-02-29T03:52:29.509Z,985.51
2016-02-29T03:53:29.497Z,985.55
2016-02-29T03:54:29.499Z,985.49
2016-02-29T03:55:29.502Z,985.52
2016-02-29T03:56:29.489Z,985.52
2016-02-29T03:57:29.492Z,985.54
2016-02-29T03:58:29.495Z,985.56
2016-02-29T03:59:29.482Z,985.55
2016-02-29T04:00:29.469Z,985.51
2016-02-29T04:01:29.472Z,985.5
2016-02-29T04:02:29.459Z,985.44
2016-02-29T04:03:29.462Z,985.45
2016-02-29T04:04:29.464Z,985.53
2016-02-29T04:05:29.451Z,985.51
2016-02-29T04:06:29.454Z,985.5
2016-02-29T04:07:29.441Z,985.48
2016-02-29T04:08:29.443Z,985.5
2016-02-29T04:09:29.446Z,985.5
2016-02-29T04:10:29.433Z,985.48
2016-02-29T04:11:29.435Z,985.52
2016-02-29T04:12:29.422Z,985.53
2016-02-29T04:13:29.425Z,985.55
2016-02-29T04:14:29.413Z,985.52
2016-02-29T04:15:29.415Z,985.54
2016-02-29T04:16:29.418Z,985.58
2016-02-29T04:17:29.404Z,985.51
2016-02-29T04:18:29.408Z,985.53
2016-02-29T04:19:29.395Z,985.52
2016-02-29T04:20:29.398Z,985.57
2016-02-29T04:21:29.385Z,985.56
2016-02-29T04:22:29.387Z,985.58
2016-02-29T04:23:29.390Z,985.54
2016-02-29T04:24:29.408Z,985.52
2016-02-29T04:25:29.379Z,985.49
2016-02-29T04:26:29.367Z,985.53
2016-02-29T04:27:29.385Z,985.56
2016-02-29T04:28:29.374Z,985.6
2016-02-29T04:29:29.360Z,985.6
2016-02-29T04:30:29.347Z,985.59
2016-02-29T04:31:29.350Z,985.58
2016-02-29T04:32:29.352Z,985.56
2016-02-29T04:33:29.340Z,985.58
2016-02-29T04:34:29.342Z,985.59
2016-02-29T04:35:29.330Z,985.59
2016-02-29T04:36:29.332Z,985.63
2016-02-29T04:37:29.335Z,985.63
2016-02-29T04:38:29.321Z,985.59
2016-02-29T04:39:29.340Z,985.61
2016-02-29T04:40:29.343Z,985.62
2016-02-29T04:41:29.329Z,985.66
2016-02-29T04:42:29.317Z,985.62
2016-02-29T04:43:29.304Z,985.65
2016-02-29T04:44:29.306Z,985.66
2016-02-29T04:45:29.294Z,985.61
2016-02-29T04:46:29.297Z,985.66
2016-02-29T04:47:29.299Z,985.66
2016-02-29T04:48:29.287Z,985.62
2016-02-29T04:49:29.289Z,985.64
2016-02-29T04:50:29.276Z,985.62
2016-02-29T04:51:29.278Z,985.62
2016-02-29T04:52:29.266Z,985.65
2016-02-29T04:53:29.269Z,985.67
2016-02-29T04:54:29.271Z,985.74
2016-02-29T04:55:29.258Z,985.76
2016-02-29T04:56:29.261Z,985.73
2016-02-29T04:57:29.248Z,985.73
2016-02-29T04:58:29.250Z,985.7
2016-02-29T04:59:29.253Z,985.72
2016-02-29T05:00:29.240Z,985.75
2016-02-29T05:01:29.244Z,985.74
2016-02-29T05:02:29.230Z,985.75
2016-02-29T05:03:29.233Z,985.75
2016-02-29T05:04:29.235Z,985.68
2016-02-29T05:05:29.223Z,985.69
2016-02-29T05:06:29.213Z,985.72
2016-02-29T05:07:29.215Z,985.74
2016-02-29T05:08:29.218Z,985.68
2016-02-29T05:09:29.205Z,985.69
2016-02-29T05:10:29.207Z,985.72
2016-02-29T05:11:29.195Z,985.71
2016-02-29T05:12:29.197Z,985.73
2016-02-29T05:13:29.200Z,985.7
2016-02-29T05:14:29.188Z,985.66
2016-02-29T05:15:29.190Z,985.69
2016-02-29T05:16:29.177Z,985.69
2016-02-29T05:17:29.179Z,985.73
2016-02-29T05:18:29.167Z,985.67
2016-02-29T05:19:29.169Z,985.69
2016-02-29T05:20:29.172Z,985.66
2016-02-29T05:21:29.159Z,985.67
2016-02-29T05:22:29.161Z,985.62
2016-02-29T05:23:29.149Z,985.61
2016-02-29T05:24:29.152Z,985.65
2016-02-29T05:25:29.154Z,985.59
2016-02-29T05:26:29.141Z,985.56
2016-02-29T05:27:29.144Z,985.53
2016-02-29T05:28:29.131Z,985.51
2016-02-29T05:29:29.133Z,985.5
2016-02-29T05:30:29.121Z,985.53
2016-02-29T05:31:29.123Z,985.51
2016-02-29T05:32:29.126Z,985.52
2016-02-29T05:33:29.114Z,985.48
2016-02-29T05:34:29.116Z,985.52
2016-02-29T05:35:29.103Z,985.57
2016-02-29T05:36:29.105Z,985.54
2016-02-29T05:37:29.093Z,985.59
2016-02-29T05:38:29.096Z,985.56
2016-02-29T05:39:29.099Z,985.6
2016-02-29T05:40:29.085Z,985.6
2016-02-29T05:41:29.088Z,985.6
2016-02-29T05:42:29.075Z,985.58
2016-02-29T05:43:29.079Z,985.6
2016-02-29T05:44:29.080Z,985.56
2016-02-29T05:45:29.068Z,985.59
2016-02-29T05:46:29.071Z,985.59
2016-02-29T05:47:29.057Z,985.56
2016-02-29T05:48:29.060Z,985.62
2016-02-29T05:49:29.048Z,985.68
2016-02-29T05:50:29.050Z,985.67
2016-02-29T05:51:29.053Z,985.65
2016-02-29T05:52:29.056Z,985.62
2016-02-29T05:53:29.042Z,985.68
2016-02-29T05:54:29.029Z,985.7
2016-02-29T05:55:29.031Z,985.69
2016-02-29T05:56:29.034Z,985.71
2016-02-29T05:57:29.076Z,985.72
2016-02-29T05:58:29.030Z,985.74
2016-02-29T05:59:29.021Z,985.73
2016-02-29T06:00:29.009Z,985.77
2016-02-29T06:01:29.006Z,985.75
2016-02-29T06:02:29.009Z,985.79
2016-02-29T06:03:29.012Z,985.75
2016-02-29T06:04:28.999Z,985.77
2016-02-29T06:05:29.003Z,985.78
2016-02-29T06:06:28.989Z,985.75
2016-02-29T06:07:28.992Z,985.75
2016-02-29T06:08:28.979Z,985.85
2016-02-29T06:09:28.982Z,985.85
2016-02-29T06:10:28.969Z,985.79
2016-02-29T06:11:28.972Z,985.87
2016-02-29T06:12:28.958Z,985.84
2016-02-29T06:13:28.961Z,985.85
2016-02-29T06:14:28.963Z,985.82
2016-02-29T06:15:28.967Z,985.82
2016-02-29T06:16:28.954Z,985.81
2016-02-29T06:17:28.964Z,985.85
2016-02-29T06:18:28.936Z,985.76
2016-02-29T06:19:28.938Z,985.84
2016-02-29T06:20:28.941Z,985.81
2016-02-29T06:21:28.928Z,985.83
2016-02-29T06:22:28.931Z,985.82
2016-02-29T06:23:28.918Z,985.82
2016-02-29T06:24:28.921Z,985.78
2016-02-29T06:25:28.923Z,985.84
2016-02-29T06:26:28.910Z,985.86
2016-02-29T06:27:28.897Z,985.83
2016-02-29T06:28:28.900Z,985.84
2016-02-29T06:29:28.903Z,985.83
2016-02-29T06:30:28.890Z,985.81
2016-02-29T06:31:28.892Z,985.83
2016-02-29T06:32:28.895Z,985.8
2016-02-29T06:33:28.897Z,985.8
2016-02-29T06:34:28.884Z,985.8
2016-02-29T06:35:28.872Z,985.8
2016-02-29T06:36:28.890Z,985.82
2016-02-29T06:37:28.878Z,985.84
2016-02-29T06:38:28.864Z,985.83
2016-02-29T06:39:28.867Z,985.85
2016-02-29T06:40:28.854Z,985.84
2016-02-29T06:41:28.857Z,985.88
2016-02-29T06:42:28.844Z,985.84
2016-02-29T06:43:28.847Z,985.84
2016-02-29T06:44:28.833Z,985.81
2016-02-29T06:45:28.836Z,985.79
2016-02-29T06:46:28.838Z,985.89
2016-02-29T06:47:28.827Z,985.85
2016-02-29T06:48:28.829Z,985.82
2016-02-29T06:49:28.816Z,985.88
2016-02-29T06:50:28.834Z,985.84
2016-02-29T06:51:28.821Z,985.87
2016-02-29T06:52:28.808Z,985.88
2016-02-29T06:53:28.810Z,985.85
2016-02-29T06:54:28.798Z,985.89
2016-02-29T06:55:28.801Z,985.84
2016-02-29T06:56:28.788Z,985.87
2016-02-29T06:57:28.790Z,985.89
2016-02-29T06:58:28.778Z,985.86
2016-02-29T06:59:28.780Z,985.89
2016-02-29T07:00:28.784Z,985.91
2016-02-29T07:01:28.770Z,985.9
2016-02-29T07:02:28.773Z,985.92
2016-02-29T07:03:28.775Z,985.97
2016-02-29T07:04:28.762Z,985.96
2016-02-29T07:05:28.765Z,986
2016-02-29T07:06:28.752Z,986.01
2016-02-29T07:07:28.739Z,986.02
2016-02-29T07:08:28.742Z,986.03
2016-02-29T07:09:28.744Z,986.02
2016-02-29T07:10:28.747Z,986.1
2016-02-29T07:11:28.734Z,986.04
2016-02-29T07:12:28.736Z,986.08
2016-02-29T07:13:28.724Z,986.09
2016-02-29T07:14:28.727Z,986.09
2016-02-29T07:15:28.714Z,986.15
2016-02-29T07:16:28.716Z,986.16
2016-02-29T07:17:28.719Z,986.16
2016-02-29T07:18:28.707Z,986.18
2016-02-29T07:19:28.694Z,986.18
2016-02-29T07:20:28.696Z,986.2
2016-02-29T07:21:28.699Z,986.23
2016-02-29T07:22:28.701Z,986.19
2016-02-29T07:23:28.688Z,986.21
2016-02-29T07:24:28.676Z,986.23
2016-02-29T07:25:28.678Z,986.21
2016-02-29T07:26:28.682Z,986.23
2016-02-29T07:27:28.668Z,986.29
2016-02-29T07:28:28.671Z,986.22
2016-02-29T07:29:28.657Z,986.23
2016-02-29T07:30:28.676Z,986.21
2016-02-29T07:31:28.648Z,986.17
2016-02-29T07:32:28.650Z,986.22
2016-02-29T07:33:28.653Z,986.2
2016-02-29T07:34:28.640Z,986.23
2016-02-29T07:35:28.642Z,986.26
2016-02-29T07:36:28.630Z,986.23
2016-02-29T07:37:28.633Z,986.21
2016-02-29T07:38:28.635Z,986.27
2016-02-29T07:39:28.623Z,986.24
2016-02-29T07:40:28.625Z,986.24
2016-02-29T07:41:28.612Z,986.21
2016-02-29T07:42:28.614Z,986.25
2016-02-29T07:43:28.602Z,986.24
2016-02-29T07:44:28.605Z,986.23
2016-02-29T07:45:28.608Z,986.25
2016-02-29T07:46:28.594Z,986.27
2016-02-29T07:47:28.597Z,986.28
2016-02-29T07:48:28.584Z,986.28
2016-02-29T07:49:28.586Z,986.29
2016-02-29T07:50:28.589Z,986.29
2016-02-29T07:51:28.576Z,986.27
2016-02-29T07:52:28.579Z,986.24
2016-02-29T07:53:28.582Z,986.26
2016-02-29T07:54:28.569Z,986.25
2016-02-29T07:55:28.571Z,986.28
2016-02-29T07:56:28.559Z,986.34
2016-02-29T07:57:28.562Z,986.32
2016-02-29T07:58:28.565Z,986.31
2016-02-29T07:59:28.551Z,986.28
2016-02-29T08:00:28.554Z,986.31
2016-02-29T08:01:28.540Z,986.32
2016-02-29T08:02:28.543Z,986.29
2016-02-29T08:03:28.530Z,986.26
2016-02-29T08:04:28.533Z,986.3
2016-02-29T08:05:28.537Z,986.25
2016-02-29T08:06:28.523Z,986.24
2016-02-29T08:07:28.525Z,986.28
2016-02-29T08:08:28.512Z,986.3
2016-02-29T08:09:28.515Z,986.32
2016-02-29T08:10:28.503Z,986.26
2016-02-29T08:11:28.506Z,986.3
2016-02-29T08:12:28.508Z,986.31
2016-02-29T08:13:28.495Z,986.35
2016-02-29T08:14:28.497Z,986.29
2016-02-29T08:15:28.500Z,986.29
2016-02-29T08:16:28.487Z,986.24
2016-02-29T08:17:28.490Z,986.31
2016-02-29T08:18:28.493Z,986.28
2016-02-29T08:19:28.480Z,986.27
2016-02-29T08:20:28.482Z,986.28
2016-02-29T08:21:28.469Z,986.3
2016-02-29T08:22:28.456Z,986.3
2016-02-29T08:23:28.460Z,986.27
2016-02-29T08:24:28.463Z,986.28
2016-02-29T08:25:28.449Z,986.28
2016-02-29T08:26:28.452Z,986.32
2016-02-29T08:27:28.439Z,986.33
2016-02-29T08:28:28.441Z,986.32
2016-02-29T08:29:28.443Z,986.34
2016-02-29T08:30:28.431Z,986.35
2016-02-29T08:31:28.435Z,986.39
2016-02-29T08:32:28.421Z,986.36
2016-02-29T08:33:28.424Z,986.39
2016-02-29T08:34:28.426Z,986.4
2016-02-29T08:35:28.414Z,986.49
2016-02-29T08:36:28.416Z,986.42
2016-02-29T08:37:28.419Z,986.52
2016-02-29T08:38:28.406Z,986.47
2016-02-29T08:39:28.393Z,986.5
2016-02-29T08:40:28.396Z,986.44
2016-02-29T08:41:28.398Z,986.48
2016-02-29T08:42:28.386Z,986.44
2016-02-29T08:43:28.388Z,986.48
2016-02-29T08:44:28.376Z,986.49
2016-02-29T08:45:28.378Z,986.48
2016-02-29T08:46:28.365Z,986.47
2016-02-29T08:47:28.367Z,986.49
2016-02-29T08:48:28.370Z,986.49
2016-02-29T08:49:28.372Z,986.49
2016-02-29T08:50:28.375Z,986.45
2016-02-29T08:51:28.377Z,986.49
2016-02-29T08:52:28.350Z,986.48
2016-02-29T08:53:28.353Z,986.48
2016-02-29T08:54:28.340Z,986.49
2016-02-29T08:55:28.343Z,986.5
2016-02-29T08:56:28.345Z,986.51
2016-02-29T08:57:28.348Z,986.48
2016-02-29T08:58:28.334Z,986.49
2016-02-29T08:59:28.321Z,986.51
2016-02-29T09:00:28.325Z,986.51
2016-02-29T09:01:28.327Z,986.46
2016-02-29T09:02:28.315Z,986.49
2016-02-29T09:03:28.317Z,986.51
2016-02-29T09:04:28.303Z,986.5
2016-02-29T09:05:28.308Z,986.55
2016-02-29T09:06:28.309Z,986.54
2016-02-29T09:07:28.295Z,986.57
2016-02-29T09:08:28.283Z,986.56
2016-02-29T09:09:28.285Z,986.58
2016-02-29T09:10:28.288Z,986.58
2016-02-29T09:11:28.274Z,986.58
2016-02-29T09:12:28.277Z,986.6
2016-02-29T09:13:28.265Z,986.6
2016-02-29T09:14:28.268Z,986.6
2016-02-29T09:15:28.271Z,986.64
2016-02-29T09:16:28.257Z,986.59
2016-02-29T09:17:28.259Z,986.64
2016-02-29T09:18:28.247Z,986.72
2016-02-29T09:19:28.250Z,986.65
2016-02-29T09:20:28.252Z,986.67
2016-02-29T09:21:28.240Z,986.67
2016-02-29T09:22:28.242Z,986.72
2016-02-29T09:23:28.229Z,986.72
2016-02-29T09:24:28.231Z,986.74
2016-02-29T09:25:28.234Z,986.78
2016-02-29T09:26:28.238Z,986.79
2016-02-29T09:27:28.224Z,986.75
2016-02-29T09:28:28.227Z,986.75
2016-02-29T09:29:28.214Z,986.8
2016-02-29T09:30:28.200Z,986.67
2016-02-29T09:31:28.203Z,986.68
2016-02-29T09:32:28.192Z,986.72
2016-02-29T09:33:28.194Z,986.73
2016-02-29T09:34:28.197Z,986.7
2016-02-29T09:35:28.199Z,986.73
2016-02-29T09:36:28.186Z,986.71
2016-02-29T09:37:28.189Z,986.73
2016-02-29T09:38:28.176Z,986.76
2016-02-29T09:39:28.178Z,986.75
2016-02-29T09:40:28.181Z,986.81
2016-02-29T09:41:28.168Z,986.82
2016-02-29T09:42:28.171Z,986.88
2016-02-29T09:43:28.173Z,986.85
2016-02-29T09:44:28.160Z,986.84
2016-02-29T09:45:28.147Z,986.91
2016-02-29T09:46:28.150Z,986.88
2016-02-29T09:47:28.152Z,986.94
2016-02-29T10:16:23.168Z,987.06
2016-02-29T10:17:23.170Z,987.06
2016-02-29T10:18:23.158Z,987.1
2016-02-29T10:19:23.160Z,987.05
2016-02-29T10:20:23.148Z,987.08
2016-02-29T10:21:23.150Z,987.05
2016-02-29T10:22:23.137Z,987.08
2016-02-29T10:23:23.139Z,987.1
2016-02-29T10:24:23.142Z,987.07
2016-02-29T10:25:23.161Z,987.09
2016-02-29T10:26:23.132Z,987.09
2016-02-29T10:27:23.119Z,987.11
2016-02-29T10:28:23.122Z,987.1
2016-02-29T10:29:23.125Z,987.1
2016-02-29T10:30:23.112Z,987.1
2016-02-29T10:31:23.114Z,987.05
2016-02-29T10:32:23.102Z,987.13
2016-02-29T10:33:23.104Z,987.06
2016-02-29T10:34:23.107Z,987.04
2016-02-29T10:35:23.094Z,987.05
2016-02-29T10:36:23.097Z,987.07
2016-02-29T10:37:23.099Z,987.08
2016-02-29T10:38:23.102Z,987.1
2016-02-29T10:39:23.105Z,987.1
2016-02-29T10:40:23.091Z,987.2
2016-02-29T10:41:23.079Z,987.15
2016-02-29T10:42:23.066Z,987.1
2016-02-29T10:43:23.068Z,987.06
2016-02-29T10:44:23.071Z,987.04
2016-02-29T10:45:23.058Z,987.08
2016-02-29T10:46:23.061Z,987.11
2016-02-29T10:47:23.063Z,987.16
2016-02-29T10:48:23.051Z,987.17
2016-02-29T10:49:23.054Z,987.19
2016-02-29T10:50:23.040Z,987.16
2016-02-29T10:51:23.059Z,987.17
2016-02-29T10:52:23.046Z,987.21
2016-02-29T10:53:23.033Z,987.22
2016-02-29T10:54:23.036Z,987.17
2016-02-29T10:55:23.054Z,987.19
2016-02-29T10:56:23.025Z,987.18
2016-02-29T10:57:23.028Z,987.17
2016-02-29T10:58:23.031Z,987.15
2016-02-29T10:59:23.033Z,987.18
2016-02-29T11:00:23.020Z,987.17
2016-02-29T11:01:23.023Z,987.16
2016-02-29T11:02:23.026Z,987.2
2016-02-29T11:03:23.013Z,987.19
2016-02-29T11:04:23.000Z,987.17
2016-02-29T11:05:23.008Z,987.17
2016-02-29T11:06:22.991Z,987.15
2016-02-29T11:07:22.983Z,987.19
2016-02-29T11:08:22.960Z,987.22
2016-02-29T11:09:22.952Z,987.21
2016-02-29T11:10:22.927Z,987.2
2016-02-29T11:11:22.920Z,987.2
2016-02-29T11:12:22.919Z,987.19
2016-02-29T11:13:22.902Z,987.16
2016-02-29T11:14:22.900Z,987.21
2016-02-29T11:15:22.900Z,987.18
2016-02-29T11:16:22.884Z,987.17
2016-02-29T11:17:22.885Z,987.22
2016-02-29T11:18:22.870Z,987.21
2016-02-29T11:19:22.872Z,987.2
2016-02-29T11:20:22.873Z,987.17
2016-02-29T11:21:22.860Z,987.15
2016-02-29T11:22:22.862Z,987.17
2016-02-29T11:23:22.848Z,987.17
2016-02-29T11:24:22.866Z,987.18
2016-02-29T11:25:22.837Z,987.13
2016-02-29T11:26:22.839Z,987.18
2016-02-29T11:27:22.841Z,987.2
2016-02-29T11:28:22.828Z,987.16
2016-02-29T11:29:22.831Z,987.19
2016-02-29T11:30:22.817Z,987.17
2016-02-29T11:31:22.820Z,987.17
2016-02-29T11:32:22.806Z,987.2
2016-02-29T11:33:22.809Z,987.23
2016-02-29T11:34:22.812Z,987.19
2016-02-29T11:35:22.799Z,987.27
2016-02-29T11:36:22.802Z,987.23
2016-02-29T11:37:22.789Z,987.21
2016-02-29T11:38:22.791Z,987.19
2016-02-29T11:39:22.794Z,987.24
2016-02-29T11:40:22.782Z,987.23
2016-02-29T11:41:22.784Z,987.28
2016-02-29T11:42:22.771Z,987.27
2016-02-29T11:43:22.774Z,987.18
2016-02-29T11:44:22.776Z,987.17
2016-02-29T11:45:22.763Z,987.18
2016-02-29T11:46:22.765Z,987.18
2016-02-29T11:47:22.769Z,987.18
2016-02-29T11:48:22.756Z,987.2
2016-02-29T11:49:22.759Z,987.14
2016-02-29T11:50:22.746Z,987.12
2016-02-29T11:51:22.748Z,987.13
2016-02-29T11:52:22.732Z,987.12
2016-02-29T11:53:22.735Z,987.14
2016-02-29T11:54:22.738Z,987.09
2016-02-29T11:55:22.726Z,987.14
2016-02-29T11:56:22.728Z,987.12
2016-02-29T11:57:22.715Z,987.1
2016-02-29T11:58:22.717Z,987.14
2016-02-29T11:59:22.705Z,987.15
2016-02-29T12:00:22.708Z,987.16
2016-02-29T12:01:22.711Z,987.15
2016-02-29T12:02:22.697Z,987.18
2016-02-29T12:03:22.700Z,987.13
2016-02-29T12:04:22.686Z,987.12
2016-02-29T12:05:22.689Z,987.21
2016-02-29T12:06:22.692Z,987.18
2016-02-29T12:07:22.680Z,987.17
2016-02-29T12:08:22.683Z,987.2
2016-02-29T12:09:22.685Z,987.22
2016-02-29T12:10:22.672Z,987.18
2016-02-29T12:11:22.658Z,987.24
2016-02-29T12:12:22.661Z,987.2
2016-02-29T12:13:22.649Z,987.15
2016-02-29T12:14:22.652Z,987.14
2016-02-29T12:15:22.654Z,987.12
2016-02-29T12:16:22.641Z,987.13
2016-02-29T12:17:22.644Z,987.14
2016-02-29T12:18:22.632Z,987.22
2016-02-29T12:19:22.634Z,987.14
2016-02-29T12:20:22.637Z,987.11
2016-02-29T12:21:22.624Z,987.15
2016-02-29T12:22:22.626Z,987.14
2016-02-29T12:23:22.613Z,987.07
2016-02-29T12:24:22.616Z,987.08
2016-02-29T12:25:22.603Z,987.12
2016-02-29T12:26:22.606Z,987.14
2016-02-29T12:27:22.608Z,987.12
2016-02-29T12:28:22.595Z,987.06
2016-02-29T12:29:22.598Z,987.13
2016-02-29T12:30:22.600Z,987.14
2016-02-29T12:31:22.587Z,987.07
2016-02-29T12:32:22.590Z,987.12
2016-02-29T12:33:22.577Z,987.05
2016-02-29T12:34:22.581Z,987.05
2016-02-29T12:35:22.567Z,987.14
2016-02-29T12:36:22.570Z,987.18
2016-02-29T12:37:22.558Z,987.17
2016-02-29T12:38:22.560Z,987.17
2016-02-29T12:39:22.563Z,987.15
2016-02-29T12:40:22.549Z,987.18
2016-02-29T12:41:22.553Z,987.17
2016-02-29T12:42:22.539Z,987.2
2016-02-29T12:43:22.558Z,987.19
2016-02-29T12:44:22.529Z,987.26
2016-02-29T12:45:22.532Z,987.25
2016-02-29T12:46:22.534Z,987.26
2016-02-29T12:47:22.522Z,987.2
2016-02-29T12:48:22.524Z,987.26
2016-02-29T12:49:22.511Z,987.3
2016-02-29T12:50:22.513Z,987.23
2016-02-29T12:51:22.516Z,987.31
2016-02-29T12:52:22.504Z,987.27
2016-02-29T12:53:22.507Z,987.23
2016-02-29T12:54:22.509Z,987.28
2016-02-29T12:55:22.496Z,987.23
2016-02-29T12:56:22.484Z,987.28
2016-02-29T12:57:22.486Z,987.29
2016-02-29T12:58:22.489Z,987.28
2016-02-29T12:59:22.475Z,987.31